Startpagina
METAR-TAF:

METAR-TAF

Vliegvelden :

Leeuwarden, Nederland

Vliegbasis Leeuwarden

breedte: 53-13N, lengte: 005-46E, hoogte: 1 m

Actueel weer

Dit bericht is 15 minuten geleden gemaakt, om 10:55 UTC
Wind 5 kt uit het oostnoordoosten, variërend tussen het noorden en het zuidoosten
Temperatuur 22°C
Vochtigheid 60%
Druk 1023 hPa
Zicht 10 km of meer
geen wolken onder 1500 m en geen cumulonimbus

METAR: EHLW 261055Z AUTO 06008KT 360V140 9999 NCD 22/14 Q1023 BLU 07005KT CAVOK

Tijdstip: 13:10 (11:10 UTC)

Verwachting

Dit bericht is 2 uur en het 44 minuten geleden gemaakt, om 08:26 UTC
Verwachting geldig van 26 om 09 UTC tot 26 om 21 UTC
Wind 7 kt uit het oostnoordoosten
Zicht 10 km of meer
geen wolken onder 1500 m en geen cumulonimbus

TAF: EHLW 260826Z 2609/2621 06007KT CAVOK

Waarnemingen en weersverwachtingen van meer dan 4000 vliegvelden (METAR en TAF).

De beschikbare stations zijn de gele en rode punten op de kaart.

Ga met uw muis naar het station om de naam te zien.

Klik dan om waarnemingen en weersverwachtingen te zien.

kaart wijzigen: klik op de groene knoppen met een zwart kruis om in te zoomen, op de groene knop met een streepje om uit te zoomen of op de groene pijlen voor aangrenzende kaarten.


METAR-TAF: